sensor_id;sensor_type;location;lat;lon;timestamp;P1;durP1;ratioP1;P2;durP2;ratioP2
9128;SDS011;4599;50.906;6.786;2023-01-19T00:03:03;7.17;;;5.20;;
9128;SDS011;4599;50.906;6.786;2023-01-19T00:07:05;7.80;;;5.00;;
9128;SDS011;4599;50.906;6.786;2023-01-19T00:11:07;8.63;;;5.13;;
9128;SDS011;4599;50.906;6.786;2023-01-19T00:15:09;9.13;;;5.43;;
9128;SDS011;4599;50.906;6.786;2023-01-19T00:19:12;7.87;;;5.90;;
9128;SDS011;4599;50.906;6.786;2023-01-19T00:23:14;5.93;;;4.73;;
9128;SDS011;4599;50.906;6.786;2023-01-19T00:27:16;10.20;;;5.20;;
9128;SDS011;4599;50.906;6.786;2023-01-19T00:31:18;9.07;;;5.43;;
9128;SDS011;4599;50.906;6.786;2023-01-19T00:35:21;8.13;;;4.40;;
9128;SDS011;4599;50.906;6.786;2023-01-19T00:39:22;7.03;;;5.03;;
9128;SDS011;4599;50.906;6.786;2023-01-19T00:43:24;7.30;;;4.37;;
9128;SDS011;4599;50.906;6.786;2023-01-19T00:47:25;5.83;;;4.33;;
9128;SDS011;4599;50.906;6.786;2023-01-19T00:51:29;5.93;;;4.07;;
9128;SDS011;4599;50.906;6.786;2023-01-19T00:55:30;7.97;;;4.37;;
9128;SDS011;4599;50.906;6.786;2023-01-19T00:59:32;5.40;;;3.60;;
9128;SDS011;4599;50.906;6.786;2023-01-19T01:03:34;7.20;;;3.60;;
9128;SDS011;4599;50.906;6.786;2023-01-19T01:07:37;6.13;;;3.30;;
9128;SDS011;4599;50.906;6.786;2023-01-19T01:11:39;5.03;;;3.20;;
9128;SDS011;4599;50.906;6.786;2023-01-19T01:15:41;6.67;;;2.90;;
9128;SDS011;4599;50.906;6.786;2023-01-19T01:19:43;7.10;;;3.00;;
9128;SDS011;4599;50.906;6.786;2023-01-19T01:23:46;4.10;;;3.00;;
9128;SDS011;4599;50.906;6.786;2023-01-19T01:27:48;4.50;;;3.10;;
9128;SDS011;4599;50.906;6.786;2023-01-19T01:31:51;3.20;;;2.70;;
9128;SDS011;4599;50.906;6.786;2023-01-19T01:35:53;3.57;;;2.60;;
9128;SDS011;4599;50.906;6.786;2023-01-19T01:39:55;4.70;;;3.00;;
9128;SDS011;4599;50.906;6.786;2023-01-19T01:43:57;5.00;;;3.20;;
9128;SDS011;4599;50.906;6.786;2023-01-19T01:48:01;4.47;;;3.20;;
9128;SDS011;4599;50.906;6.786;2023-01-19T01:52:05;4.57;;;3.47;;
9128;SDS011;4599;50.906;6.786;2023-01-19T01:56:10;4.93;;;3.43;;
9128;SDS011;4599;50.906;6.786;2023-01-19T02:00:15;3.83;;;3.20;;
9128;SDS011;4599;50.906;6.786;2023-01-19T02:04:17;4.67;;;3.13;;
9128;SDS011;4599;50.906;6.786;2023-01-19T02:08:20;4.47;;;3.20;;
9128;SDS011;4599;50.906;6.786;2023-01-19T02:12:29;8.47;;;3.50;;
9128;SDS011;4599;50.906;6.786;2023-01-19T02:16:31;4.77;;;3.33;;
9128;SDS011;4599;50.906;6.786;2023-01-19T02:20:32;7.70;;;3.17;;
9128;SDS011;4599;50.906;6.786;2023-01-19T02:24:38;5.60;;;3.50;;
9128;SDS011;4599;50.906;6.786;2023-01-19T02:28:40;6.10;;;3.37;;
9128;SDS011;4599;50.906;6.786;2023-01-19T02:32:46;6.77;;;3.50;;
9128;SDS011;4599;50.906;6.786;2023-01-19T02:36:49;8.70;;;3.50;;
9128;SDS011;4599;50.906;6.786;2023-01-19T02:40:55;6.83;;;3.20;;
9128;SDS011;4599;50.906;6.786;2023-01-19T02:45:00;5.07;;;3.50;;
9128;SDS011;4599;50.906;6.786;2023-01-19T02:49:04;5.13;;;3.73;;
9128;SDS011;4599;50.906;6.786;2023-01-19T02:53:09;5.03;;;3.70;;
9128;SDS011;4599;50.906;6.786;2023-01-19T02:57:34;5.13;;;3.70;;
9128;SDS011;4599;50.906;6.786;2023-01-19T03:02:00;4.30;;;3.90;;
9128;SDS011;4599;50.906;6.786;2023-01-19T03:06:20;5.47;;;3.80;;
9128;SDS011;4599;50.906;6.786;2023-01-19T03:10:35;5.47;;;4.07;;
9128;SDS011;4599;50.906;6.786;2023-01-19T03:14:44;6.30;;;4.43;;
9128;SDS011;4599;50.906;6.786;2023-01-19T03:18:49;6.20;;;3.83;;
9128;SDS011;4599;50.906;6.786;2023-01-19T03:22:56;10.60;;;4.37;;
9128;SDS011;4599;50.906;6.786;2023-01-19T03:27:04;6.80;;;4.07;;
9128;SDS011;4599;50.906;6.786;2023-01-19T03:31:11;5.10;;;4.47;;
9128;SDS011;4599;50.906;6.786;2023-01-19T03:35:15;7.93;;;4.30;;
9128;SDS011;4599;50.906;6.786;2023-01-19T03:39:21;11.17;;;4.43;;
9128;SDS011;4599;50.906;6.786;2023-01-19T03:43:24;5.57;;;4.53;;
9128;SDS011;4599;50.906;6.786;2023-01-19T03:47:28;5.97;;;4.23;;
9128;SDS011;4599;50.906;6.786;2023-01-19T03:51:30;6.40;;;4.57;;
9128;SDS011;4599;50.906;6.786;2023-01-19T03:55:36;6.70;;;4.47;;
9128;SDS011;4599;50.906;6.786;2023-01-19T03:59:40;5.37;;;4.37;;
9128;SDS011;4599;50.906;6.786;2023-01-19T04:03:43;7.47;;;4.03;;
9128;SDS011;4599;50.906;6.786;2023-01-19T04:07:46;7.07;;;3.77;;
9128;SDS011;4599;50.906;6.786;2023-01-19T04:11:48;5.40;;;3.50;;
9128;SDS011;4599;50.906;6.786;2023-01-19T04:15:49;6.33;;;3.43;;
9128;SDS011;4599;50.906;6.786;2023-01-19T04:19:52;7.10;;;3.57;;
9128;SDS011;4599;50.906;6.786;2023-01-19T04:23:54;6.10;;;3.60;;
9128;SDS011;4599;50.906;6.786;2023-01-19T04:27:55;5.17;;;3.47;;
9128;SDS011;4599;50.906;6.786;2023-01-19T04:31:57;4.67;;;3.30;;
9128;SDS011;4599;50.906;6.786;2023-01-19T04:36:00;4.60;;;2.90;;
9128;SDS011;4599;50.906;6.786;2023-01-19T04:40:02;6.37;;;3.30;;
9128;SDS011;4599;50.906;6.786;2023-01-19T04:44:04;6.43;;;3.10;;
9128;SDS011;4599;50.906;6.786;2023-01-19T04:48:06;6.70;;;3.30;;
9128;SDS011;4599;50.906;6.786;2023-01-19T04:52:09;3.47;;;2.73;;
9128;SDS011;4599;50.906;6.786;2023-01-19T04:56:10;4.13;;;2.87;;
9128;SDS011;4599;50.906;6.786;2023-01-19T05:00:12;5.27;;;3.00;;
9128;SDS011;4599;50.906;6.786;2023-01-19T05:04:14;6.17;;;3.27;;
9128;SDS011;4599;50.906;6.786;2023-01-19T05:08:17;4.47;;;3.00;;
9128;SDS011;4599;50.906;6.786;2023-01-19T05:12:19;8.47;;;3.40;;
9128;SDS011;4599;50.906;6.786;2023-01-19T05:16:20;5.77;;;3.17;;
9128;SDS011;4599;50.906;6.786;2023-01-19T05:20:22;6.77;;;3.53;;
9128;SDS011;4599;50.906;6.786;2023-01-19T05:24:26;7.70;;;3.80;;
9128;SDS011;4599;50.906;6.786;2023-01-19T05:28:28;6.30;;;3.67;;
9128;SDS011;4599;50.906;6.786;2023-01-19T05:32:30;6.67;;;4.23;;
9128;SDS011;4599;50.906;6.786;2023-01-19T05:36:33;7.63;;;4.57;;
9128;SDS011;4599;50.906;6.786;2023-01-19T05:40:36;8.67;;;4.90;;
9128;SDS011;4599;50.906;6.786;2023-01-19T05:44:37;7.77;;;4.67;;
9128;SDS011;4599;50.906;6.786;2023-01-19T05:48:39;10.40;;;6.20;;
9128;SDS011;4599;50.906;6.786;2023-01-19T05:52:40;9.87;;;6.13;;
9128;SDS011;4599;50.906;6.786;2023-01-19T05:56:43;11.30;;;6.53;;
9128;SDS011;4599;50.906;6.786;2023-01-19T06:00:45;9.50;;;6.47;;
9128;SDS011;4599;50.906;6.786;2023-01-19T06:04:46;11.90;;;6.90;;
9128;SDS011;4599;50.906;6.786;2023-01-19T06:08:48;11.50;;;6.70;;
9128;SDS011;4599;50.906;6.786;2023-01-19T06:12:50;12.37;;;7.17;;
9128;SDS011;4599;50.906;6.786;2023-01-19T06:16:52;10.13;;;6.50;;
9128;SDS011;4599;50.906;6.786;2023-01-19T06:20:53;10.77;;;7.47;;
9128;SDS011;4599;50.906;6.786;2023-01-19T06:24:55;9.83;;;6.97;;
9128;SDS011;4599;50.906;6.786;2023-01-19T06:28:58;10.37;;;7.57;;
9128;SDS011;4599;50.906;6.786;2023-01-19T06:32:59;8.77;;;6.73;;
9128;SDS011;4599;50.906;6.786;2023-01-19T06:37:01;9.33;;;7.37;;
9128;SDS011;4599;50.906;6.786;2023-01-19T06:41:03;10.33;;;7.30;;
9128;SDS011;4599;50.906;6.786;2023-01-19T06:45:07;9.87;;;7.67;;
9128;SDS011;4599;50.906;6.786;2023-01-19T06:49:09;10.90;;;8.13;;
9128;SDS011;4599;50.906;6.786;2023-01-19T06:53:11;9.77;;;8.03;;
9128;SDS011;4599;50.906;6.786;2023-01-19T06:57:12;10.80;;;8.23;;
9128;SDS011;4599;50.906;6.786;2023-01-19T07:01:16;12.40;;;8.37;;
9128;SDS011;4599;50.906;6.786;2023-01-19T07:05:17;12.83;;;8.90;;
9128;SDS011;4599;50.906;6.786;2023-01-19T07:09:19;12.20;;;9.00;;
9128;SDS011;4599;50.906;6.786;2023-01-19T07:13:21;12.20;;;8.70;;
9128;SDS011;4599;50.906;6.786;2023-01-19T07:17:23;14.43;;;10.07;;
9128;SDS011;4599;50.906;6.786;2023-01-19T07:21:25;13.00;;;9.70;;
9128;SDS011;4599;50.906;6.786;2023-01-19T07:25:29;14.50;;;9.77;;
9128;SDS011;4599;50.906;6.786;2023-01-19T07:29:30;13.27;;;9.10;;
9128;SDS011;4599;50.906;6.786;2023-01-19T07:33:33;14.20;;;9.70;;
9128;SDS011;4599;50.906;6.786;2023-01-19T07:37:35;15.40;;;9.67;;
9128;SDS011;4599;50.906;6.786;2023-01-19T07:41:36;15.30;;;10.30;;
9128;SDS011;4599;50.906;6.786;2023-01-19T07:45:38;16.30;;;9.97;;
9128;SDS011;4599;50.906;6.786;2023-01-19T07:49:40;15.17;;;10.63;;
9128;SDS011;4599;50.906;6.786;2023-01-19T07:53:42;17.93;;;10.47;;
9128;SDS011;4599;50.906;6.786;2023-01-19T07:57:44;14.87;;;10.47;;
9128;SDS011;4599;50.906;6.786;2023-01-19T08:01:45;16.47;;;10.67;;
9128;SDS011;4599;50.906;6.786;2023-01-19T08:05:49;17.00;;;10.47;;
9128;SDS011;4599;50.906;6.786;2023-01-19T08:09:52;17.07;;;10.43;;
9128;SDS011;4599;50.906;6.786;2023-01-19T08:13:54;16.60;;;10.83;;
9128;SDS011;4599;50.906;6.786;2023-01-19T08:17:56;13.43;;;9.80;;
9128;SDS011;4599;50.906;6.786;2023-01-19T08:21:59;13.37;;;9.80;;
9128;SDS011;4599;50.906;6.786;2023-01-19T08:26:01;12.23;;;9.20;;
9128;SDS011;4599;50.906;6.786;2023-01-19T08:30:03;14.17;;;8.97;;
9128;SDS011;4599;50.906;6.786;2023-01-19T08:34:05;14.53;;;9.50;;
9128;SDS011;4599;50.906;6.786;2023-01-19T08:38:08;16.20;;;10.00;;
9128;SDS011;4599;50.906;6.786;2023-01-19T08:42:10;13.33;;;9.27;;
9128;SDS011;4599;50.906;6.786;2023-01-19T08:46:11;15.73;;;10.70;;
9128;SDS011;4599;50.906;6.786;2023-01-19T08:50:13;19.23;;;9.80;;
9128;SDS011;4599;50.906;6.786;2023-01-19T08:54:16;13.40;;;9.57;;
9128;SDS011;4599;50.906;6.786;2023-01-19T08:58:19;15.50;;;9.63;;
9128;SDS011;4599;50.906;6.786;2023-01-19T09:02:20;13.60;;;9.47;;
9128;SDS011;4599;50.906;6.786;2023-01-19T09:06:22;13.33;;;9.23;;
9128;SDS011;4599;50.906;6.786;2023-01-19T09:10:25;16.13;;;10.40;;
9128;SDS011;4599;50.906;6.786;2023-01-19T09:14:26;19.00;;;9.50;;
9128;SDS011;4599;50.906;6.786;2023-01-19T09:18:28;16.60;;;9.80;;
9128;SDS011;4599;50.906;6.786;2023-01-19T09:22:29;18.27;;;10.83;;
9128;SDS011;4599;50.906;6.786;2023-01-19T09:26:32;22.13;;;11.20;;
9128;SDS011;4599;50.906;6.786;2023-01-19T09:30:34;21.30;;;10.70;;
9128;SDS011;4599;50.906;6.786;2023-01-19T09:34:36;16.67;;;10.23;;
9128;SDS011;4599;50.906;6.786;2023-01-19T09:38:37;20.43;;;10.53;;
9128;SDS011;4599;50.906;6.786;2023-01-19T09:42:41;18.17;;;11.20;;
9128;SDS011;4599;50.906;6.786;2023-01-19T09:46:44;22.60;;;11.93;;
9128;SDS011;4599;50.906;6.786;2023-01-19T09:50:45;18.73;;;12.47;;
9128;SDS011;4599;50.906;6.786;2023-01-19T09:54:49;20.83;;;12.40;;
9128;SDS011;4599;50.906;6.786;2023-01-19T09:58:55;24.63;;;12.13;;
9128;SDS011;4599;50.906;6.786;2023-01-19T10:02:57;29.77;;;13.83;;
9128;SDS011;4599;50.906;6.786;2023-01-19T10:07:12;24.97;;;13.27;;
9128;SDS011;4599;50.906;6.786;2023-01-19T10:11:24;24.93;;;13.23;;
9128;SDS011;4599;50.906;6.786;2023-01-19T10:15:51;31.77;;;12.60;;
9128;SDS011;4599;50.906;6.786;2023-01-19T10:20:00;21.97;;;12.27;;
9128;SDS011;4599;50.906;6.786;2023-01-19T10:24:04;26.83;;;13.40;;
9128;SDS011;4599;50.906;6.786;2023-01-19T10:28:13;20.97;;;12.30;;
9128;SDS011;4599;50.906;6.786;2023-01-19T10:32:18;26.83;;;12.63;;
9128;SDS011;4599;50.906;6.786;2023-01-19T10:36:24;30.03;;;12.87;;
9128;SDS011;4599;50.906;6.786;2023-01-19T10:40:30;27.10;;;14.20;;
9128;SDS011;4599;50.906;6.786;2023-01-19T10:44:36;30.57;;;12.90;;
9128;SDS011;4599;50.906;6.786;2023-01-19T10:48:39;23.77;;;11.70;;
9128;SDS011;4599;50.906;6.786;2023-01-19T10:52:42;22.97;;;12.57;;
9128;SDS011;4599;50.906;6.786;2023-01-19T10:56:52;26.03;;;11.97;;
9128;SDS011;4599;50.906;6.786;2023-01-19T11:00:55;24.77;;;11.70;;
9128;SDS011;4599;50.906;6.786;2023-01-19T11:05:22;27.70;;;11.37;;
9128;SDS011;4599;50.906;6.786;2023-01-19T11:09:25;21.97;;;12.03;;
9128;SDS011;4599;50.906;6.786;2023-01-19T11:13:26;21.30;;;11.63;;
9128;SDS011;4599;50.906;6.786;2023-01-19T11:17:28;29.73;;;11.80;;
9128;SDS011;4599;50.906;6.786;2023-01-19T11:21:31;19.80;;;10.83;;
9128;SDS011;4599;50.906;6.786;2023-01-19T11:25:34;24.73;;;10.90;;
9128;SDS011;4599;50.906;6.786;2023-01-19T11:29:36;29.13;;;10.80;;
9128;SDS011;4599;50.906;6.786;2023-01-19T11:33:41;21.73;;;10.20;;
9128;SDS011;4599;50.906;6.786;2023-01-19T11:37:45;20.03;;;9.53;;
9128;SDS011;4599;50.906;6.786;2023-01-19T11:41:46;19.07;;;10.90;;
9128;SDS011;4599;50.906;6.786;2023-01-19T11:45:49;19.53;;;9.50;;
9128;SDS011;4599;50.906;6.786;2023-01-19T11:49:54;19.40;;;9.30;;
9128;SDS011;4599;50.906;6.786;2023-01-19T11:54:00;17.33;;;8.97;;
9128;SDS011;4599;50.906;6.786;2023-01-19T11:58:08;22.37;;;9.97;;
9128;SDS011;4599;50.906;6.786;2023-01-19T12:02:21;17.27;;;9.67;;
9128;SDS011;4599;50.906;6.786;2023-01-19T12:06:28;16.93;;;9.73;;
9128;SDS011;4599;50.906;6.786;2023-01-19T12:10:35;18.63;;;9.40;;
9128;SDS011;4599;50.906;6.786;2023-01-19T12:14:40;21.20;;;10.20;;
9128;SDS011;4599;50.906;6.786;2023-01-19T12:18:57;23.00;;;10.47;;
9128;SDS011;4599;50.906;6.786;2023-01-19T12:23:04;20.67;;;9.60;;
9128;SDS011;4599;50.906;6.786;2023-01-19T12:27:16;20.47;;;9.70;;
9128;SDS011;4599;50.906;6.786;2023-01-19T12:31:25;24.30;;;10.97;;
9128;SDS011;4599;50.906;6.786;2023-01-19T12:39:57;20.40;;;10.50;;
9128;SDS011;4599;50.906;6.786;2023-01-19T12:48:28;28.40;;;10.57;;
9128;SDS011;4599;50.906;6.786;2023-01-19T12:52:33;17.30;;;10.80;;
9128;SDS011;4599;50.906;6.786;2023-01-19T12:56:37;18.63;;;10.53;;
9128;SDS011;4599;50.906;6.786;2023-01-19T13:00:40;18.57;;;9.80;;
9128;SDS011;4599;50.906;6.786;2023-01-19T13:04:53;19.80;;;10.00;;
9128;SDS011;4599;50.906;6.786;2023-01-19T13:09:23;21.23;;;9.63;;
9128;SDS011;4599;50.906;6.786;2023-01-19T13:13:30;19.33;;;9.83;;
9128;SDS011;4599;50.906;6.786;2023-01-19T13:17:34;22.17;;;9.83;;
9128;SDS011;4599;50.906;6.786;2023-01-19T13:21:49;18.87;;;9.27;;
9128;SDS011;4599;50.906;6.786;2023-01-19T13:25:59;20.57;;;9.20;;
9128;SDS011;4599;50.906;6.786;2023-01-19T13:30:08;19.40;;;9.87;;
9128;SDS011;4599;50.906;6.786;2023-01-19T13:34:13;22.80;;;9.60;;
9128;SDS011;4599;50.906;6.786;2023-01-19T13:38:19;19.07;;;9.70;;
9128;SDS011;4599;50.906;6.786;2023-01-19T13:42:23;16.73;;;9.10;;
9128;SDS011;4599;50.906;6.786;2023-01-19T13:46:29;18.53;;;8.67;;
9128;SDS011;4599;50.906;6.786;2023-01-19T13:50:33;15.67;;;9.03;;
9128;SDS011;4599;50.906;6.786;2023-01-19T13:54:37;15.87;;;9.03;;
9128;SDS011;4599;50.906;6.786;2023-01-19T13:58:57;15.40;;;9.30;;
9128;SDS011;4599;50.906;6.786;2023-01-19T14:03:12;23.80;;;9.40;;
9128;SDS011;4599;50.906;6.786;2023-01-19T14:07:19;23.30;;;9.40;;
9128;SDS011;4599;50.906;6.786;2023-01-19T14:11:21;18.53;;;9.10;;
9128;SDS011;4599;50.906;6.786;2023-01-19T14:15:22;14.40;;;7.77;;
9128;SDS011;4599;50.906;6.786;2023-01-19T14:19:24;14.17;;;7.97;;
9128;SDS011;4599;50.906;6.786;2023-01-19T14:23:40;11.70;;;7.53;;
9128;SDS011;4599;50.906;6.786;2023-01-19T14:27:44;16.73;;;7.67;;
9128;SDS011;4599;50.906;6.786;2023-01-19T14:31:47;13.80;;;7.93;;
9128;SDS011;4599;50.906;6.786;2023-01-19T14:35:49;14.17;;;7.90;;
9128;SDS011;4599;50.906;6.786;2023-01-19T14:39:53;13.10;;;7.80;;
9128;SDS011;4599;50.906;6.786;2023-01-19T14:43:58;12.17;;;6.97;;
9128;SDS011;4599;50.906;6.786;2023-01-19T14:48:01;16.70;;;8.07;;
9128;SDS011;4599;50.906;6.786;2023-01-19T14:52:05;11.83;;;7.40;;
9128;SDS011;4599;50.906;6.786;2023-01-19T14:56:25;11.53;;;7.37;;
9128;SDS011;4599;50.906;6.786;2023-01-19T15:00:28;12.77;;;6.87;;
9128;SDS011;4599;50.906;6.786;2023-01-19T15:04:29;17.53;;;7.00;;
9128;SDS011;4599;50.906;6.786;2023-01-19T15:08:31;16.73;;;6.43;;
9128;SDS011;4599;50.906;6.786;2023-01-19T15:12:35;8.00;;;5.83;;
9128;SDS011;4599;50.906;6.786;2023-01-19T15:16:37;10.73;;;5.97;;
9128;SDS011;4599;50.906;6.786;2023-01-19T15:20:39;11.30;;;5.90;;
9128;SDS011;4599;50.906;6.786;2023-01-19T15:24:40;10.33;;;6.17;;
9128;SDS011;4599;50.906;6.786;2023-01-19T15:28:43;10.53;;;6.00;;
9128;SDS011;4599;50.906;6.786;2023-01-19T15:32:46;10.53;;;6.00;;
9128;SDS011;4599;50.906;6.786;2023-01-19T15:36:47;9.83;;;5.90;;
9128;SDS011;4599;50.906;6.786;2023-01-19T15:40:49;8.00;;;6.60;;
9128;SDS011;4599;50.906;6.786;2023-01-19T15:44:53;9.43;;;6.10;;
9128;SDS011;4599;50.906;6.786;2023-01-19T15:48:54;12.13;;;6.57;;
9128;SDS011;4599;50.906;6.786;2023-01-19T15:52:56;12.17;;;6.10;;
9128;SDS011;4599;50.906;6.786;2023-01-19T15:56:58;9.93;;;6.00;;
9128;SDS011;4599;50.906;6.786;2023-01-19T16:01:01;11.90;;;6.13;;
9128;SDS011;4599;50.906;6.786;2023-01-19T16:05:03;11.00;;;5.53;;
9128;SDS011;4599;50.906;6.786;2023-01-19T16:09:04;11.37;;;5.67;;
9128;SDS011;4599;50.906;6.786;2023-01-19T16:13:06;10.17;;;5.53;;
9128;SDS011;4599;50.906;6.786;2023-01-19T16:17:09;8.63;;;4.90;;
9128;SDS011;4599;50.906;6.786;2023-01-19T16:21:11;11.33;;;5.00;;
9128;SDS011;4599;50.906;6.786;2023-01-19T16:25:12;8.07;;;4.57;;
9128;SDS011;4599;50.906;6.786;2023-01-19T16:29:14;10.70;;;5.00;;
9128;SDS011;4599;50.906;6.786;2023-01-19T16:33:17;8.53;;;4.57;;
9128;SDS011;4599;50.906;6.786;2023-01-19T16:37:18;7.87;;;4.20;;
9128;SDS011;4599;50.906;6.786;2023-01-19T16:41:20;5.03;;;4.07;;
9128;SDS011;4599;50.906;6.786;2023-01-19T16:45:21;9.20;;;4.40;;
9128;SDS011;4599;50.906;6.786;2023-01-19T16:49:25;6.40;;;4.50;;
9128;SDS011;4599;50.906;6.786;2023-01-19T16:53:29;11.10;;;4.40;;
9128;SDS011;4599;50.906;6.786;2023-01-19T16:57:33;7.83;;;4.90;;
9128;SDS011;4599;50.906;6.786;2023-01-19T17:01:35;7.13;;;4.13;;
9128;SDS011;4599;50.906;6.786;2023-01-19T17:05:38;9.03;;;4.20;;
9128;SDS011;4599;50.906;6.786;2023-01-19T17:09:40;6.73;;;4.03;;
9128;SDS011;4599;50.906;6.786;2023-01-19T17:13:41;9.33;;;4.67;;
9128;SDS011;4599;50.906;6.786;2023-01-19T17:17:43;11.70;;;4.10;;
9128;SDS011;4599;50.906;6.786;2023-01-19T17:21:46;10.30;;;4.87;;
9128;SDS011;4599;50.906;6.786;2023-01-19T17:25:50;9.00;;;4.43;;
9128;SDS011;4599;50.906;6.786;2023-01-19T17:29:52;8.57;;;4.57;;
9128;SDS011;4599;50.906;6.786;2023-01-19T17:33:54;7.60;;;3.87;;
9128;SDS011;4599;50.906;6.786;2023-01-19T17:37:57;5.60;;;4.00;;
9128;SDS011;4599;50.906;6.786;2023-01-19T17:41:58;7.23;;;3.40;;
9128;SDS011;4599;50.906;6.786;2023-01-19T17:46:00;7.37;;;4.00;;
9128;SDS011;4599;50.906;6.786;2023-01-19T17:50:02;5.83;;;3.90;;
9128;SDS011;4599;50.906;6.786;2023-01-19T17:54:05;6.80;;;3.70;;
9128;SDS011;4599;50.906;6.786;2023-01-19T17:58:06;6.73;;;3.90;;
9128;SDS011;4599;50.906;6.786;2023-01-19T18:02:08;7.37;;;3.93;;
9128;SDS011;4599;50.906;6.786;2023-01-19T18:06:10;8.33;;;4.23;;
9128;SDS011;4599;50.906;6.786;2023-01-19T18:10:13;4.57;;;3.60;;
9128;SDS011;4599;50.906;6.786;2023-01-19T18:14:16;6.00;;;3.80;;
9128;SDS011;4599;50.906;6.786;2023-01-19T18:18:17;8.27;;;4.43;;
9128;SDS011;4599;50.906;6.786;2023-01-19T18:22:19;8.03;;;3.83;;
9128;SDS011;4599;50.906;6.786;2023-01-19T18:26:21;6.60;;;3.30;;
9128;SDS011;4599;50.906;6.786;2023-01-19T18:30:23;7.20;;;3.57;;
9128;SDS011;4599;50.906;6.786;2023-01-19T18:34:24;7.43;;;4.30;;
9128;SDS011;4599;50.906;6.786;2023-01-19T18:38:26;7.50;;;4.10;;
9128;SDS011;4599;50.906;6.786;2023-01-19T18:42:29;7.03;;;3.43;;
9128;SDS011;4599;50.906;6.786;2023-01-19T18:46:31;9.80;;;4.53;;
9128;SDS011;4599;50.906;6.786;2023-01-19T18:50:32;6.67;;;3.60;;
9128;SDS011;4599;50.906;6.786;2023-01-19T18:54:34;7.53;;;3.27;;
9128;SDS011;4599;50.906;6.786;2023-01-19T18:58:37;3.57;;;2.97;;
9128;SDS011;4599;50.906;6.786;2023-01-19T19:02:39;9.40;;;3.10;;
9128;SDS011;4599;50.906;6.786;2023-01-19T19:06:40;4.90;;;3.03;;
9128;SDS011;4599;50.906;6.786;2023-01-19T19:10:42;6.90;;;3.33;;
9128;SDS011;4599;50.906;6.786;2023-01-19T19:14:45;6.70;;;3.43;;
9128;SDS011;4599;50.906;6.786;2023-01-19T19:18:46;7.57;;;3.23;;
9128;SDS011;4599;50.906;6.786;2023-01-19T19:22:48;4.97;;;3.13;;
9128;SDS011;4599;50.906;6.786;2023-01-19T19:26:50;4.47;;;2.83;;
9128;SDS011;4599;50.906;6.786;2023-01-19T19:31:01;5.67;;;3.47;;
9128;SDS011;4599;50.906;6.786;2023-01-19T19:35:04;7.97;;;4.17;;
9128;SDS011;4599;50.906;6.786;2023-01-19T19:39:06;6.70;;;3.20;;
9128;SDS011;4599;50.906;6.786;2023-01-19T19:43:07;6.57;;;3.73;;
9128;SDS011;4599;50.906;6.786;2023-01-19T19:47:10;7.70;;;3.67;;
9128;SDS011;4599;50.906;6.786;2023-01-19T19:51:12;7.57;;;3.40;;
9128;SDS011;4599;50.906;6.786;2023-01-19T19:55:19;7.87;;;3.50;;
9128;SDS011;4599;50.906;6.786;2023-01-19T19:59:21;9.17;;;3.70;;
9128;SDS011;4599;50.906;6.786;2023-01-19T20:03:25;7.13;;;3.63;;
9128;SDS011;4599;50.906;6.786;2023-01-19T20:07:27;6.03;;;3.17;;
9128;SDS011;4599;50.906;6.786;2023-01-19T20:11:28;4.57;;;3.37;;
9128;SDS011;4599;50.906;6.786;2023-01-19T20:15:30;6.60;;;2.87;;
9128;SDS011;4599;50.906;6.786;2023-01-19T20:19:33;7.53;;;3.50;;
9128;SDS011;4599;50.906;6.786;2023-01-19T20:23:34;8.33;;;3.43;;
9128;SDS011;4599;50.906;6.786;2023-01-19T20:27:36;6.50;;;3.63;;
9128;SDS011;4599;50.906;6.786;2023-01-19T20:31:38;4.60;;;3.60;;
9128;SDS011;4599;50.906;6.786;2023-01-19T20:35:44;4.27;;;3.07;;
9128;SDS011;4599;50.906;6.786;2023-01-19T20:39:45;4.60;;;3.30;;
9128;SDS011;4599;50.906;6.786;2023-01-19T20:43:47;8.13;;;3.70;;
9128;SDS011;4599;50.906;6.786;2023-01-19T20:47:48;6.43;;;3.53;;
9128;SDS011;4599;50.906;6.786;2023-01-19T20:51:51;6.77;;;3.87;;
9128;SDS011;4599;50.906;6.786;2023-01-19T20:55:52;5.00;;;3.63;;
9128;SDS011;4599;50.906;6.786;2023-01-19T20:59:54;6.60;;;4.00;;
9128;SDS011;4599;50.906;6.786;2023-01-19T21:03:56;8.47;;;3.87;;
9128;SDS011;4599;50.906;6.786;2023-01-19T21:07:58;7.70;;;3.83;;
9128;SDS011;4599;50.906;6.786;2023-01-19T21:12:00;8.97;;;4.00;;
9128;SDS011;4599;50.906;6.786;2023-01-19T21:16:02;6.20;;;3.67;;
9128;SDS011;4599;50.906;6.786;2023-01-19T21:20:04;7.27;;;4.00;;
9128;SDS011;4599;50.906;6.786;2023-01-19T21:24:09;4.97;;;3.90;;
9128;SDS011;4599;50.906;6.786;2023-01-19T21:28:11;5.97;;;3.43;;
9128;SDS011;4599;50.906;6.786;2023-01-19T21:32:12;6.20;;;3.97;;
9128;SDS011;4599;50.906;6.786;2023-01-19T21:36:14;8.40;;;4.30;;
9128;SDS011;4599;50.906;6.786;2023-01-19T21:40:17;5.47;;;3.97;;
9128;SDS011;4599;50.906;6.786;2023-01-19T21:44:19;10.87;;;3.80;;
9128;SDS011;4599;50.906;6.786;2023-01-19T21:48:20;5.53;;;3.50;;
9128;SDS011;4599;50.906;6.786;2023-01-19T21:52:22;6.10;;;3.80;;
9128;SDS011;4599;50.906;6.786;2023-01-19T21:56:25;5.27;;;4.10;;
9128;SDS011;4599;50.906;6.786;2023-01-19T22:00:27;5.87;;;4.07;;
9128;SDS011;4599;50.906;6.786;2023-01-19T22:04:29;5.83;;;4.30;;
9128;SDS011;4599;50.906;6.786;2023-01-19T22:08:30;6.33;;;4.30;;
9128;SDS011;4599;50.906;6.786;2023-01-19T22:12:33;11.03;;;4.93;;
9128;SDS011;4599;50.906;6.786;2023-01-19T22:16:35;8.33;;;5.23;;
9128;SDS011;4599;50.906;6.786;2023-01-19T22:20:36;8.90;;;4.70;;
9128;SDS011;4599;50.906;6.786;2023-01-19T22:24:38;10.37;;;5.80;;
9128;SDS011;4599;50.906;6.786;2023-01-19T22:28:41;10.20;;;6.20;;
9128;SDS011;4599;50.906;6.786;2023-01-19T22:32:43;9.00;;;5.57;;
9128;SDS011;4599;50.906;6.786;2023-01-19T22:36:44;11.00;;;5.53;;
9128;SDS011;4599;50.906;6.786;2023-01-19T22:40:46;10.77;;;6.17;;
9128;SDS011;4599;50.906;6.786;2023-01-19T22:44:49;7.10;;;5.57;;
9128;SDS011;4599;50.906;6.786;2023-01-19T22:48:50;9.30;;;5.80;;
9128;SDS011;4599;50.906;6.786;2023-01-19T22:52:53;9.00;;;5.60;;
9128;SDS011;4599;50.906;6.786;2023-01-19T22:56:55;10.00;;;5.57;;
9128;SDS011;4599;50.906;6.786;2023-01-19T23:01:04;9.70;;;5.57;;
9128;SDS011;4599;50.906;6.786;2023-01-19T23:05:06;8.53;;;5.43;;
9128;SDS011;4599;50.906;6.786;2023-01-19T23:09:09;8.33;;;5.73;;
9128;SDS011;4599;50.906;6.786;2023-01-19T23:13:12;7.23;;;4.90;;
9128;SDS011;4599;50.906;6.786;2023-01-19T23:17:15;7.03;;;5.27;;
9128;SDS011;4599;50.906;6.786;2023-01-19T23:21:18;15.37;;;5.77;;
9128;SDS011;4599;50.906;6.786;2023-01-19T23:25:21;8.93;;;5.37;;
9128;SDS011;4599;50.906;6.786;2023-01-19T23:29:22;9.37;;;5.43;;
9128;SDS011;4599;50.906;6.786;2023-01-19T23:33:25;7.87;;;5.40;;
9128;SDS011;4599;50.906;6.786;2023-01-19T23:37:27;10.20;;;6.03;;
9128;SDS011;4599;50.906;6.786;2023-01-19T23:41:29;9.80;;;5.97;;
9128;SDS011;4599;50.906;6.786;2023-01-19T23:45:33;10.77;;;6.40;;
9128;SDS011;4599;50.906;6.786;2023-01-19T23:49:36;10.27;;;6.23;;
9128;SDS011;4599;50.906;6.786;2023-01-19T23:53:37;10.37;;;6.33;;
9128;SDS011;4599;50.906;6.786;2023-01-19T23:57:39;10.00;;;6.77;;
